• Join FlightAware (Why Join?)
  • Login
  • US Flag 
10:27AM EDT


 

Airport Tracker/Info


-or-


 

Live Flight TrackerFlight Track Log ✈ CHQ5046 ✈ 02-May-2013 ✈ KORD - KAZO

Flight Track Log - Related Links

Times and Time Zones

All times are in EDT time to prevent confusion due to time zone crossing. See the CHQ5046 flight status page for this flight to view local times or setup timezone preferences in your user account.

Time Position Orientation Groundspeed Altitude Reporting Facility
EDT Latitude Longitude Course Direction KTS MPH feet Rate Location/Type
06:56PM 42.0000 -87.8833 84° East 138 159 1,400  Level Chicago TRACON
06:57PM 42.0000 -87.8167 90° East 204 235 3,300 2,040 Climbing Chicago TRACON
06:58PM 42.0000 -87.7333 90° East 258 297 5,500 2,100 Climbing Chicago TRACON
06:59PM 42.0167 -87.6486 90° East  Level FlightAware Approximate
07:00PM 42.0310 -87.5690 37° Northeast  Level FlightAware Approximate
07:01PM 42.0405 -87.4817 84° East  Level FlightAware Approximate
07:01PM 42.0403 -87.4872 77° East 285 328 10,500  Level Chicago Center
07:02PM 42.0484 -87.3856 84° East  Level FlightAware Approximate
07:02PM 42.0617 -87.3619 77° East 341 392 11,000  Level Chicago Center
07:03PM 42.0844 -87.2233 77° East 375 432 11,000  Level Chicago Center
07:04PM 42.1075 -87.0875 77° East 376 433 11,000  Level Chicago Center
07:05PM 42.1161 -86.9497 85° East 371 427 11,000  Level Chicago Center
07:06PM 42.1211 -86.8128 87° East 368 423 11,000  Level Chicago Center
07:07PM 42.1258 -86.6572 88° East 368 423 11,000  Level Chicago Center
07:08PM 42.1306 -86.5186 87° East 371 427 11,000  Level Chicago Center
07:09PM 42.1347 -86.3819 88° East 367 422 11,100  Climbing Chicago Center
07:10PM 42.1400 -86.2444 87° East 367 422 11,000 -300 Descending Chicago Center
07:11PM 42.1450 -86.1089 87° East 364 419 10,600 -1,020 Descending Chicago Center
07:12PM 42.1703 -85.9783 75° East 305 351 9,000 -1,560 Descending Chicago Center
07:13PM 42.1994 -85.8808 68° East 286 329 7,400 -1,680 Descending Chicago Center
07:14PM 42.2289 -85.7906 66° East 271 312 5,600 -1,800 Descending Chicago Center
07:15PM 42.2594 -85.7031 65° Northeast 263 303 3,800 -1,500 Descending Chicago Center
07:16PM 42.2908 -85.6100 65° Northeast 253 291 2,500 -900 Descending Chicago Center
07:17PM 42.2853 -85.5581 98° East 183 211 2,000 -540 Descending Chicago Center
07:18PM 42.2542 -85.5544 175° South 149 171 1,400 -600 Descending Chicago Center